Time;durP1;ratioP1;P1;durP2;ratioP2;P2;SDS_P1;SDS_P2;PMS_P1;PMS_P2;Temp;Humidity;BMP_temperature;BMP_pressure;BME280_temperature;BME280_humidity;BME280_pressure;Samples;Min_cycle;Max_cycle;Signal;HPM_P1;HPM_P2
2021/08/23 00:02:16;;;;;;;35.90;21.98;;;17.20;99.90;;;;;;5012969;28;25156;-77
2021/08/23 00:04:42;;;;;;;32.25;22.80;;;17.30;99.90;;;;;;5011770;28;25057;-77
2021/08/23 00:07:08;;;;;;;35.42;24.98;;;17.20;99.90;;;;;;5011619;28;25065;-75
2021/08/23 00:09:34;;;;;;;36.30;24.00;;;17.20;99.90;;;;;;5011682;28;25076;-77
2021/08/23 00:12:01;;;;;;;39.63;24.75;;;17.20;99.90;;;;;;5011781;28;25066;-76
2021/08/23 00:14:26;;;;;;;34.92;26.15;;;17.20;99.90;;;;;;5012129;28;25065;-83
2021/08/23 00:16:52;;;;;;;39.60;27.88;;;17.20;99.90;;;;;;4994140;28;25064;-78
2021/08/23 00:19:18;;;;;;;37.90;27.25;;;17.20;99.90;;;;;;5015399;28;25141;-82
2021/08/23 00:21:44;;;;;;;38.45;27.20;;;17.10;99.90;;;;;;5015402;28;25112;-79
2021/08/23 00:24:21;;;;;;;42.65;29.58;;;17.10;99.90;;;;;;5010274;28;25079;-75
2021/08/23 00:26:49;;;;;;;42.83;29.42;;;17.10;99.90;;;;;;5010478;28;25071;-78
2021/08/23 00:29:15;;;;;;;48.25;30.13;;;17.10;99.90;;;;;;5012598;28;25091;-77
2021/08/23 00:31:40;;;;;;;44.78;30.20;;;17.10;99.90;;;;;;5018996;28;25085;-78
2021/08/23 00:34:06;;;;;;;49.00;33.17;;;17.10;99.90;;;;;;5014334;28;25099;-76
2021/08/23 00:36:31;;;;;;;49.88;32.88;;;17.00;99.90;;;;;;5014660;28;25073;-78
2021/08/23 00:38:57;;;;;;;50.42;34.22;;;17.00;99.90;;;;;;5008944;28;25100;-77
2021/08/23 00:41:26;;;;;;;49.42;31.27;;;17.10;99.90;;;;;;5017177;28;25166;-78
2021/08/23 00:43:51;;;;;;;56.03;35.15;;;17.00;99.90;;;;;;5011972;28;25090;-77
2021/08/23 00:46:17;;;;;;;53.63;34.45;;;17.00;99.90;;;;;;5011369;28;25069;-77
2021/08/23 00:48:43;;;;;;;57.95;35.67;;;17.00;99.90;;;;;;5010118;28;25082;-78
2021/08/23 00:51:08;;;;;;;55.10;35.53;;;17.00;99.90;;;;;;5012516;28;25072;-76
2021/08/23 00:53:34;;;;;;;57.63;35.80;;;17.10;99.90;;;;;;5012426;28;25078;-76
2021/08/23 00:55:59;;;;;;;54.95;35.65;;;17.10;99.90;;;;;;5011325;28;25068;-77
2021/08/23 00:58:25;;;;;;;57.03;36.17;;;17.10;99.90;;;;;;5009154;28;25072;-76
2021/08/23 01:01:17;;;;;;;52.42;34.65;;;17.10;99.90;;;;;;5010858;28;25063;-79
2021/08/23 01:03:53;;;;;;;342.02;49.42;;;17.10;99.90;;;;;;5011721;28;25066;-79
2021/08/23 01:06:20;;;;;;;55.53;37.20;;;17.00;99.90;;;;;;5004374;28;25112;-76
2021/08/23 01:08:48;;;;;;;51.35;35.60;;;17.10;99.90;;;;;;5010465;28;25084;-78
2021/08/23 01:11:17;;;;;;;49.85;33.55;;;17.10;99.90;;;;;;5009058;28;25160;-75
2021/08/23 01:13:49;;;;;;;260.77;45.08;;;17.10;99.90;;;;;;5011956;28;25066;-77
2021/08/23 01:16:17;;;;;;;695.75;147.30;;;17.10;99.90;;;;;;5011894;28;25053;-76
2021/08/23 01:18:43;;;;;;;1999.90;999.90;;;17.10;99.90;;;;;;5014961;28;25061;-77
2021/08/23 01:21:11;;;;;;;35.67;17.05;;;17.10;99.90;;;;;;5024027;28;25067;-75
2021/08/23 01:23:42;;;;;;;46.97;37.28;;;17.20;99.90;;;;;;5023132;28;25074;-78
2021/08/23 01:26:09;;;;;;;784.00;161.40;;;17.20;99.90;;;;;;5003734;28;25060;-77
2021/08/23 01:28:47;;;;;;;44.17;35.00;;;17.20;99.90;;;;;;5012196;28;25082;-76
2021/08/23 01:31:31;;;;;;;46.20;35.45;;;17.20;99.90;;;;;;4994718;28;25077;-78
2021/08/23 01:33:58;;;;;;;50.10;35.67;;;17.20;99.90;;;;;;4995304;28;25075;-77
2021/08/23 01:36:24;;;;;;;49.22;35.97;;;17.30;99.90;;;;;;5015525;28;25060;-76
2021/08/23 01:38:50;;;;;;;44.20;34.78;;;17.30;99.90;;;;;;5012778;28;25108;-77
2021/08/23 01:41:16;;;;;;;46.90;33.50;;;17.20;99.90;;;;;;5013818;28;25071;-76
2021/08/23 01:43:41;;;;;;;45.10;35.38;;;17.20;99.90;;;;;;5014516;28;25084;-79
2021/08/23 01:46:07;;;;;;;41.33;34.17;;;17.20;99.90;;;;;;5011136;28;25067;-74
2021/08/23 01:48:33;;;;;;;42.83;32.58;;;17.20;99.90;;;;;;5012523;28;25099;-76
2021/08/23 01:50:59;;;;;;;43.83;34.55;;;17.20;99.90;;;;;;5012553;28;25080;-75
2021/08/23 01:53:24;;;;;;;45.45;34.63;;;17.20;99.90;;;;;;5011629;28;25068;-76
2021/08/23 01:55:50;;;;;;;42.95;32.53;;;17.30;99.90;;;;;;5011177;28;25086;-81
2021/08/23 01:58:16;;;;;;;42.33;33.83;;;17.20;99.90;;;;;;5013967;28;25085;-76
2021/08/23 02:00:41;;;;;;;47.70;36.65;;;17.20;99.90;;;;;;5015530;28;25084;-77
2021/08/23 02:03:07;;;;;;;46.38;35.55;;;17.20;99.90;;;;;;4999309;28;25054;-76
2021/08/23 02:05:33;;;;;;;48.65;37.45;;;17.20;99.90;;;;;;5016227;28;25063;-79
2021/08/23 02:07:59;;;;;;;45.42;35.70;;;17.20;99.90;;;;;;4994766;28;25149;-77
2021/08/23 02:10:26;;;;;;;45.30;36.45;;;17.20;99.90;;;;;;5015354;28;25078;-77
2021/08/23 02:12:52;;;;;;;53.60;41.78;;;17.10;99.90;;;;;;5014001;28;25058;-74
2021/08/23 02:15:18;;;;;;;49.08;37.20;;;17.10;99.90;;;;;;5011917;28;25062;-74
2021/08/23 02:17:44;;;;;;;44.83;35.90;;;17.10;99.90;;;;;;5011305;28;25066;-74
2021/08/23 02:20:12;;;;;;;41.92;33.50;;;17.10;99.90;;;;;;5012309;28;25064;-75
2021/08/23 02:22:38;;;;;;;44.38;33.35;;;17.10;99.90;;;;;;5011504;28;25149;-75
2021/08/23 02:25:05;;;;;;;45.42;34.67;;;17.10;99.90;;;;;;5011951;28;25059;-76
2021/08/23 02:27:32;;;;;;;43.60;31.80;;;17.10;99.90;;;;;;5011588;28;25091;-78
2021/08/23 02:29:57;;;;;;;41.65;33.05;;;17.10;99.90;;;;;;5010102;28;25049;-76
2021/08/23 02:32:23;;;;;;;41.80;32.72;;;17.00;99.90;;;;;;5009477;28;25130;-77
2021/08/23 02:34:48;;;;;;;35.35;29.92;;;17.00;99.90;;;;;;5005908;28;25157;-76
2021/08/23 02:37:14;;;;;;;41.17;31.50;;;17.00;99.90;;;;;;5010037;28;25053;-76
2021/08/23 02:39:39;;;;;;;34.25;29.85;;;17.00;99.90;;;;;;5011160;28;25060;-73
2021/08/23 02:42:05;;;;;;;36.08;29.52;;;17.00;99.90;;;;;;5011442;28;25139;-80
2021/08/23 02:44:31;;;;;;;38.85;30.67;;;17.00;99.90;;;;;;5010660;28;25077;-77
2021/08/23 02:46:56;;;;;;;37.17;30.38;;;17.00;99.90;;;;;;5010834;28;25068;-75
2021/08/23 02:49:23;;;;;;;39.10;29.58;;;17.00;99.90;;;;;;5010894;28;25062;-78
2021/08/23 02:51:49;;;;;;;39.17;31.20;;;17.00;99.90;;;;;;4993620;28;25139;-77
2021/08/23 02:54:14;;;;;;;38.88;29.05;;;17.00;99.90;;;;;;5013116;28;25061;-77
2021/08/23 02:56:40;;;;;;;38.22;29.45;;;17.10;99.90;;;;;;5008873;28;25106;-77
2021/08/23 02:59:06;;;;;;;37.78;31.42;;;17.00;99.90;;;;;;4991898;28;25153;-77
2021/08/23 03:01:31;;;;;;;40.67;31.40;;;17.00;99.90;;;;;;5010346;28;25063;-77
2021/08/23 03:03:57;;;;;;;44.95;32.65;;;16.90;99.90;;;;;;5010913;28;25060;-75
2021/08/23 03:06:22;;;;;;;41.47;30.25;;;16.90;99.90;;;;;;5010097;28;25085;-74
2021/08/23 03:08:48;;;;;;;44.55;31.20;;;16.90;99.90;;;;;;5009624;28;25090;-75
2021/08/23 03:11:14;;;;;;;41.00;30.50;;;16.90;99.90;;;;;;5006097;28;25062;-78
2021/08/23 03:13:41;;;;;;;42.85;31.52;;;16.80;99.90;;;;;;5010393;28;25147;-76
2021/08/23 03:16:07;;;;;;;39.75;29.15;;;16.90;99.90;;;;;;5011867;28;25057;-77
2021/08/23 03:18:33;;;;;;;40.97;29.15;;;16.80;99.90;;;;;;5013210;28;25085;-78
2021/08/23 03:21:00;;;;;;;39.08;29.77;;;16.80;99.90;;;;;;5011740;28;25052;-75
2021/08/23 03:23:27;;;;;;;41.63;29.63;;;16.90;99.90;;;;;;5010945;28;25092;-84
2021/08/23 03:25:52;;;;;;;34.28;25.95;;;16.80;99.90;;;;;;5009976;28;25100;-78
2021/08/23 03:28:18;;;;;;;38.80;27.92;;;16.90;99.90;;;;;;5010626;28;25074;-77
2021/08/23 03:30:43;;;;;;;36.65;26.52;;;16.90;99.90;;;;;;5008633;28;25055;-77
2021/08/23 03:33:16;;;;;;;36.88;25.17;;;16.80;99.90;;;;;;5009878;28;25078;-79
2021/08/23 03:35:42;;;;;;;31.30;23.85;;;16.80;99.90;;;;;;5010399;28;25076;-80
2021/08/23 03:38:08;;;;;;;32.40;22.50;;;16.80;99.90;;;;;;5011844;28;25058;-77
2021/08/23 03:40:34;;;;;;;29.30;22.10;;;16.80;99.90;;;;;;4996727;28;25063;-80
2021/08/23 03:42:59;;;;;;;26.35;20.58;;;16.80;99.90;;;;;;5010802;28;25076;-77
2021/08/23 03:45:25;;;;;;;28.02;21.27;;;16.80;99.90;;;;;;5008881;28;25084;-76
2021/08/23 03:47:51;;;;;;;24.55;19.30;;;16.70;99.90;;;;;;5011458;28;25077;-80
2021/08/23 03:50:16;;;;;;;27.65;22.45;;;16.70;99.90;;;;;;5011400;28;25058;-77
2021/08/23 03:52:42;;;;;;;26.13;18.35;;;16.70;99.90;;;;;;5010144;28;25086;-79
2021/08/23 03:55:09;;;;;;;26.08;17.15;;;16.70;99.90;;;;;;5010668;28;25095;-76
2021/08/23 03:57:35;;;;;;;24.65;17.60;;;16.70;99.90;;;;;;5011271;28;25088;-76
2021/08/23 04:00:03;;;;;;;18.92;16.08;;;16.70;99.90;;;;;;5010722;28;25138;-77
2021/08/23 04:02:29;;;;;;;20.77;17.25;;;16.70;99.90;;;;;;5012260;28;25082;-81
2021/08/23 04:04:55;;;;;;;23.35;17.13;;;16.70;99.90;;;;;;5011714;28;25074;-77
2021/08/23 04:07:20;;;;;;;21.33;17.38;;;16.70;99.90;;;;;;5015937;28;25087;-79
2021/08/23 04:09:46;;;;;;;24.00;16.75;;;16.70;99.90;;;;;;5012457;28;25082;-78
2021/08/23 04:12:13;;;;;;;22.75;17.85;;;16.70;99.90;;;;;;5011460;28;25139;-78
2021/08/23 04:14:39;;;;;;;21.52;17.67;;;16.70;99.90;;;;;;5009450;28;25072;-74
2021/08/23 04:17:05;;;;;;;23.73;17.42;;;16.70;99.90;;;;;;5009713;28;25079;-76
2021/08/23 04:19:31;;;;;;;22.83;16.98;;;16.70;99.90;;;;;;5009533;28;25074;-77
2021/08/23 04:22:03;;;;;;;25.77;18.52;;;16.70;99.90;;;;;;5012087;28;25070;-80
2021/08/23 04:24:29;;;;;;;25.08;18.85;;;16.70;99.90;;;;;;5013576;28;25069;-78
2021/08/23 04:26:54;;;;;;;22.95;17.48;;;16.60;99.90;;;;;;5011624;28;25139;-78
2021/08/23 04:29:20;;;;;;;23.85;17.92;;;16.70;99.90;;;;;;5018182;28;25070;-79
2021/08/23 04:31:46;;;;;;;29.08;17.60;;;16.70;99.90;;;;;;5014945;28;25129;-79
2021/08/23 04:34:12;;;;;;;21.52;16.40;;;16.70;99.90;;;;;;5017108;28;25066;-79
2021/08/23 04:36:38;;;;;;;22.83;18.77;;;16.70;99.90;;;;;;5016978;28;25073;-79
2021/08/23 04:39:05;;;;;;;23.50;18.73;;;16.70;99.90;;;;;;5013371;28;25065;-80
2021/08/23 04:41:38;;;;;;;25.00;18.48;;;16.70;99.90;;;;;;5013640;28;25066;-78
2021/08/23 04:44:05;;;;;;;22.98;18.58;;;16.70;99.90;;;;;;5012947;28;25099;-77
2021/08/23 04:46:31;;;;;;;28.13;17.85;;;16.70;99.90;;;;;;5012825;28;25155;-80
2021/08/23 04:48:56;;;;;;;31.55;19.27;;;16.70;99.90;;;;;;5010168;28;25046;-76
2021/08/23 04:51:22;;;;;;;23.95;16.88;;;16.70;99.90;;;;;;5010987;28;25136;-80
2021/08/23 04:53:48;;;;;;;25.20;17.98;;;16.70;99.90;;;;;;5013884;28;25080;-80
2021/08/23 04:56:15;;;;;;;20.48;17.42;;;16.70;99.90;;;;;;5011968;28;25127;-75
2021/08/23 04:58:40;;;;;;;23.08;17.20;;;16.70;99.90;;;;;;5009257;28;25135;-75
2021/08/23 05:01:06;;;;;;;24.13;17.08;;;16.60;99.90;;;;;;5007309;28;25147;-75
2021/08/23 05:03:31;;;;;;;23.50;15.88;;;16.70;99.90;;;;;;5008989;28;25128;-75
2021/08/23 05:05:57;;;;;;;23.63;16.00;;;16.70;99.90;;;;;;5010496;28;25115;-76
2021/08/23 05:08:23;;;;;;;22.52;15.40;;;16.70;99.90;;;;;;5011528;28;25144;-79
2021/08/23 05:10:48;;;;;;;19.88;15.13;;;16.70;99.90;;;;;;5009022;28;25153;-77
2021/08/23 05:13:15;;;;;;;20.08;14.63;;;16.70;99.90;;;;;;5013051;28;25059;-75
2021/08/23 05:15:43;;;;;;;19.10;13.85;;;16.70;99.90;;;;;;5014158;28;25085;-77
2021/08/23 05:18:09;;;;;;;16.23;12.20;;;16.70;99.90;;;;;;5013794;28;25067;-75
2021/08/23 05:20:34;;;;;;;14.10;11.57;;;16.80;99.90;;;;;;5012978;28;25080;-76
2021/08/23 05:23:00;;;;;;;12.02;10.35;;;16.70;99.90;;;;;;5015300;28;25104;-78
2021/08/23 05:25:27;;;;;;;15.07;11.45;;;16.70;99.90;;;;;;5013269;28;25113;-76
2021/08/23 05:27:52;;;;;;;13.70;9.45;;;16.70;99.90;;;;;;5010466;28;25077;-74
2021/08/23 05:30:18;;;;;;;11.00;9.75;;;16.80;99.90;;;;;;5014612;28;25136;-74
2021/08/23 05:32:44;;;;;;;11.00;8.57;;;16.80;99.90;;;;;;5011892;28;25086;-75
2021/08/23 05:35:15;;;;;;;13.40;8.77;;;16.80;99.90;;;;;;5013528;28;25067;-77
2021/08/23 05:37:43;;;;;;;13.73;8.38;;;16.80;99.90;;;;;;5010967;28;25156;-76
2021/08/23 05:40:09;;;;;;;13.90;7.88;;;16.80;99.90;;;;;;5015352;28;25091;-76
2021/08/23 05:42:35;;;;;;;14.38;8.27;;;16.80;99.90;;;;;;5014397;28;25067;-73
2021/08/23 05:45:00;;;;;;;11.40;7.43;;;16.80;99.90;;;;;;5015093;28;25110;-73
2021/08/23 05:47:28;;;;;;;18.90;7.45;;;16.80;99.90;;;;;;5012550;28;25111;-75
2021/08/23 05:49:54;;;;;;;13.55;6.95;;;16.80;99.90;;;;;;5013134;28;25073;-76
2021/08/23 05:52:31;;;;;;;11.88;7.50;;;16.90;99.90;;;;;;5011654;28;25064;-78
2021/08/23 05:54:57;;;;;;;14.88;7.57;;;16.90;99.90;;;;;;5012559;28;25073;-78
2021/08/23 05:57:24;;;;;;;15.15;7.10;;;17.00;99.90;;;;;;5012759;28;25134;-77
2021/08/23 06:00:17;;;;;;;15.02;6.75;;;16.90;99.90;;;;;;5033229;28;25079;-74
2021/08/23 06:02:44;;;;;;;15.13;7.28;;;17.00;99.90;;;;;;5030667;28;25079;-73
2021/08/23 06:05:13;;;;;;;17.17;6.72;;;16.90;99.90;;;;;;5023707;28;25073;-75
2021/08/23 06:07:39;;;;;;;12.70;7.13;;;16.90;99.90;;;;;;5014351;28;25069;-76
2021/08/23 06:10:05;;;;;;;17.65;7.40;;;17.00;99.90;;;;;;5014503;28;25095;-77
2021/08/23 06:12:32;;;;;;;18.27;7.75;;;17.00;99.90;;;;;;5013814;28;25081;-76
2021/08/23 06:14:58;;;;;;;13.07;6.93;;;17.00;99.90;;;;;;5013881;28;25149;-76
2021/08/23 06:17:24;;;;;;;12.40;7.00;;;17.10;99.90;;;;;;5012074;28;25094;-74
2021/08/23 06:19:50;;;;;;;15.80;6.07;;;17.00;99.90;;;;;;5012396;28;25054;-77
2021/08/23 06:22:15;;;;;;;11.63;5.50;;;17.10;99.90;;;;;;5012121;28;25051;-75
2021/08/23 06:24:42;;;;;;;11.20;5.55;;;17.20;99.90;;;;;;5013604;28;25062;-78
2021/08/23 06:27:08;;;;;;;14.85;5.65;;;17.30;99.90;;;;;;5013602;28;25094;-77
2021/08/23 06:29:33;;;;;;;11.13;5.45;;;17.20;99.90;;;;;;5010209;28;25085;-78
2021/08/23 06:32:02;;;;;;;13.02;5.72;;;17.20;99.90;;;;;;5010939;28;25094;-75
2021/08/23 06:34:29;;;;;;;10.73;4.60;;;17.20;99.90;;;;;;5013187;28;25070;-77
2021/08/23 06:36:54;;;;;;;12.02;5.05;;;17.20;99.90;;;;;;5015715;28;25105;-73
2021/08/23 06:39:20;;;;;;;12.13;4.85;;;17.20;99.90;;;;;;5016532;28;25053;-80
2021/08/23 06:41:45;;;;;;;10.82;4.47;;;17.30;99.90;;;;;;5033152;28;25111;-79
2021/08/23 06:44:12;;;;;;;9.40;4.78;;;17.30;99.90;;;;;;5011755;28;25093;-80
2021/08/23 06:46:39;;;;;;;8.90;4.70;;;17.30;99.90;;;;;;5027939;28;25092;-76
2021/08/23 06:49:05;;;;;;;10.00;4.85;;;17.30;99.90;;;;;;5025131;28;25135;-78
2021/08/23 06:51:31;;;;;;;11.85;4.55;;;17.40;99.90;;;;;;5027710;28;25092;-76
2021/08/23 06:53:58;;;;;;;12.35;4.85;;;17.40;99.90;;;;;;5033865;28;25061;-78
2021/08/23 06:56:24;;;;;;;10.23;4.57;;;17.40;99.90;;;;;;5033615;28;25053;-77
2021/08/23 06:58:49;;;;;;;13.10;4.45;;;17.40;99.90;;;;;;5033721;28;25070;-76
2021/08/23 07:01:15;;;;;;;8.68;4.60;;;17.50;99.90;;;;;;5033943;28;25138;-79
2021/08/23 07:03:41;;;;;;;12.05;4.97;;;17.50;99.90;;;;;;5034327;28;25087;-79
2021/08/23 07:06:06;;;;;;;9.82;5.05;;;17.50;99.90;;;;;;5033720;28;25101;-79
2021/08/23 07:08:32;;;;;;;12.77;4.75;;;17.50;99.90;;;;;;5031056;28;25096;-76
2021/08/23 07:10:59;;;;;;;9.80;5.68;;;17.60;99.90;;;;;;5031327;28;25078;-80
2021/08/23 07:13:25;;;;;;;13.48;4.78;;;17.60;99.90;;;;;;5026150;28;25065;-79
2021/08/23 07:15:50;;;;;;;12.65;4.55;;;17.70;99.90;;;;;;5003036;28;25091;-77
2021/08/23 07:18:16;;;;;;;8.25;4.13;;;17.70;99.90;;;;;;5029064;28;25092;-82
2021/08/23 07:20:53;;;;;;;7.72;4.93;;;17.80;99.90;;;;;;5034038;28;25112;-75
2021/08/23 07:23:20;;;;;;;8.30;4.93;;;17.70;99.90;;;;;;5029612;28;25060;-79
2021/08/23 07:25:47;;;;;;;12.40;5.28;;;17.70;99.90;;;;;;5034483;28;25050;-79
2021/08/23 07:28:13;;;;;;;13.35;4.82;;;17.70;99.90;;;;;;5035967;28;25057;-78
2021/08/23 07:30:39;;;;;;;9.60;4.78;;;17.70;99.90;;;;;;5035072;28;25079;-76
2021/08/23 07:33:06;;;;;;;9.73;4.75;;;17.70;99.90;;;;;;5035334;28;25065;-78
2021/08/23 07:35:32;;;;;;;7.18;4.13;;;17.80;99.90;;;;;;5034957;28;25068;-77
2021/08/23 07:37:57;;;;;;;8.48;4.40;;;17.80;99.90;;;;;;5033822;28;25065;-77
2021/08/23 07:40:23;;;;;;;9.30;4.35;;;17.80;99.90;;;;;;5035317;28;25096;-77
2021/08/23 07:42:48;;;;;;;5.97;4.20;;;17.80;99.90;;;;;;5035390;28;25058;-76
2021/08/23 07:45:24;;;;;;;12.07;3.53;;;17.80;99.90;;;;;;5034207;28;25058;-76
2021/08/23 07:47:50;;;;;;;6.93;3.63;;;17.80;99.90;;;;;;5033844;28;25053;-75
2021/08/23 07:50:16;;;;;;;9.15;3.13;;;17.80;99.90;;;;;;5033938;28;25079;-75
2021/08/23 07:52:44;;;;;;;5.13;3.45;;;17.90;99.90;;;;;;5034216;28;25078;-76
2021/08/23 07:55:11;;;;;;;8.38;3.72;;;17.90;99.90;;;;;;5034252;28;25078;-78
2021/08/23 07:57:42;;;;;;;8.85;3.03;;;18.00;99.90;;;;;;5017463;28;25067;-78
2021/08/23 08:00:08;;;;;;;7.72;3.22;;;18.10;99.90;;;;;;5031437;28;25076;-78
2021/08/23 08:02:34;;;;;;;9.48;4.03;;;18.10;99.90;;;;;;5034663;28;25058;-79
2021/08/23 08:04:59;;;;;;;12.77;3.40;;;18.10;99.90;;;;;;5038070;28;25074;-75
2021/08/23 08:07:25;;;;;;;7.80;3.78;;;18.20;99.90;;;;;;5033982;28;25093;-77
2021/08/23 08:09:50;;;;;;;4.43;2.78;;;18.10;99.90;;;;;;5032900;28;25122;-76
2021/08/23 08:12:17;;;;;;;9.18;4.03;;;18.10;99.90;;;;;;5032269;28;25082;-76
2021/08/23 08:14:43;;;;;;;5.22;3.03;;;18.20;99.90;;;;;;5033524;28;25057;-78
2021/08/23 08:17:09;;;;;;;7.68;3.83;;;18.20;99.90;;;;;;5033785;28;25052;-76
2021/08/23 08:19:34;;;;;;;7.10;3.50;;;18.30;99.90;;;;;;5034264;28;25049;-78
2021/08/23 08:22:05;;;;;;;8.80;4.38;;;18.20;99.90;;;;;;5034315;28;25088;-77
2021/08/23 08:24:30;;;;;;;18.35;3.78;;;18.20;99.90;;;;;;5031551;28;25061;-77
2021/08/23 08:26:56;;;;;;;11.80;3.70;;;18.20;99.90;;;;;;5034646;28;25099;-77
2021/08/23 08:29:21;;;;;;;7.25;3.40;;;18.30;99.90;;;;;;5033658;28;25052;-77
2021/08/23 08:31:47;;;;;;;12.32;3.40;;;18.40;99.90;;;;;;5034226;28;25067;-80
2021/08/23 08:34:13;;;;;;;5.43;3.17;;;18.50;99.90;;;;;;5033743;28;25056;-75
2021/08/23 08:36:38;;;;;;;9.18;3.67;;;18.40;99.90;;;;;;5034036;28;25065;-78
2021/08/23 08:39:04;;;;;;;8.82;2.90;;;18.40;99.90;;;;;;5032292;28;25066;-78
2021/08/23 08:41:31;;;;;;;5.53;2.50;;;18.40;99.90;;;;;;5034181;28;25072;-77
2021/08/23 08:44:00;;;;;;;8.57;3.00;;;18.40;99.90;;;;;;5031966;28;25047;-79
2021/08/23 08:46:25;;;;;;;6.95;2.83;;;18.40;99.90;;;;;;5030246;28;25091;-76
2021/08/23 08:48:51;;;;;;;5.65;2.97;;;18.50;99.90;;;;;;5032321;28;25062;-77
2021/08/23 08:51:18;;;;;;;9.68;2.50;;;18.50;99.90;;;;;;5031151;28;25068;-78
2021/08/23 08:53:44;;;;;;;6.30;2.75;;;18.60;99.90;;;;;;5033351;28;25074;-77
2021/08/23 08:56:09;;;;;;;8.02;2.67;;;18.50;99.90;;;;;;5033096;28;25096;-75
2021/08/23 08:58:36;;;;;;;8.52;3.03;;;18.60;99.90;;;;;;5033581;28;25064;-77
2021/08/23 09:01:04;;;;;;;8.15;3.00;;;18.60;99.90;;;;;;5034234;28;25107;-77
2021/08/23 09:03:31;;;;;;;5.35;2.90;;;18.70;99.90;;;;;;5033375;28;25066;-79
2021/08/23 09:06:02;;;;;;;5.38;2.75;;;18.70;99.90;;;;;;5031764;28;25102;-75
2021/08/23 09:08:29;;;;;;;8.13;2.85;;;18.80;99.90;;;;;;5033167;28;25070;-78
2021/08/23 09:10:56;;;;;;;7.95;3.03;;;18.70;99.90;;;;;;5030502;28;25062;-79
2021/08/23 09:13:25;;;;;;;3.35;2.45;;;18.80;99.90;;;;;;5031493;28;25084;-76
2021/08/23 09:15:57;;;;;;;8.55;3.05;;;18.80;99.90;;;;;;5017060;28;25093;-78
2021/08/23 09:18:24;;;;;;;;;;;18.80;99.90;;;;;;5013243;28;25040;-78
2021/08/23 09:21:07;;;;;;;10.05;3.58;;;18.70;99.90;;;;;;5013531;28;24072;-78
2021/08/23 09:23:34;;;;;;;6.32;2.65;;;18.90;99.90;;;;;;5008511;28;25071;-74
2021/08/23 09:26:31;;;;;;;9.40;2.55;;;18.70;99.90;;;;;;5011491;28;25058;-73
2021/08/23 09:29:02;;;;;;;7.80;2.65;;;18.90;99.90;;;;;;5018383;28;25106;-79
2021/08/23 09:31:31;;;;;;;7.78;2.55;;;19.00;99.90;;;;;;5014205;28;25053;-79
2021/08/23 09:33:59;;;;;;;7.53;2.92;;;19.10;99.90;;;;;;5014777;28;25071;-76
2021/08/23 09:36:27;;;;;;;7.60;3.03;;;19.20;99.90;;;;;;5009624;28;25111;-77
2021/08/23 09:39:07;;;;;;;10.80;2.72;;;19.10;99.90;;;;;;5014071;28;25121;-76
2021/08/23 09:41:40;;;;;;;8.30;3.10;;;19.20;99.90;;;;;;5013829;28;25144;-77
2021/08/23 09:44:07;;;;;;;6.15;3.17;;;19.10;99.90;;;;;;5010729;28;25108;-75
2021/08/23 09:46:34;;;;;;;7.82;3.13;;;19.10;99.90;;;;;;4998628;28;25069;-73
2021/08/23 09:49:06;;;;;;;8.20;2.97;;;19.00;99.90;;;;;;5012059;28;25058;-75
2021/08/23 09:51:36;;;;;;;8.68;2.78;;;19.20;99.90;;;;;;5010803;28;25116;-76
2021/08/23 09:54:13;;;;;;;7.63;2.88;;;19.30;99.90;;;;;;5011960;28;25055;-77
2021/08/23 09:56:48;;;;;;;5.93;2.55;;;19.40;99.90;;;;;;5010759;28;25108;-73
2021/08/23 09:59:16;;;;;;;6.50;2.30;;;19.40;99.90;;;;;;5015359;28;25066;-78
2021/08/23 10:01:44;;;;;;;8.10;2.95;;;19.50;99.90;;;;;;5015147;28;25128;-78
2021/08/23 10:04:11;;;;;;;6.25;2.72;;;19.60;99.90;;;;;;5015926;28;25075;-80
2021/08/23 10:06:39;;;;;;;3.50;2.30;;;19.70;99.90;;;;;;5017520;28;25059;-75
2021/08/23 10:09:06;;;;;;;7.38;2.72;;;20.00;99.90;;;;;;5015043;28;25061;-78
2021/08/23 10:11:33;;;;;;;8.25;2.40;;;20.00;99.90;;;;;;5013338;28;25076;-75
2021/08/23 10:13:59;;;;;;;11.02;2.65;;;20.10;99.90;;;;;;5016643;28;25071;-77
2021/08/23 10:16:26;;;;;;;4.40;2.30;;;20.20;99.90;;;;;;5020426;28;25137;-74
2021/08/23 10:18:52;;;;;;;8.45;2.75;;;20.10;99.90;;;;;;5016897;28;25055;-78
2021/08/23 10:21:20;;;;;;;10.02;2.67;;;19.90;99.90;;;;;;5016181;28;25066;-77
2021/08/23 10:23:48;;;;;;;3.63;2.53;;;20.00;99.90;;;;;;5026274;28;25069;-77
2021/08/23 10:26:14;;;;;;;9.55;2.75;;;20.00;99.90;;;;;;5020943;28;25070;-78
2021/08/23 10:28:39;;;;;;;8.75;3.00;;;20.10;99.90;;;;;;5014395;28;25059;-73
2021/08/23 10:31:12;;;;;;;5.55;2.95;;;20.00;99.90;;;;;;5013362;28;25079;-73
2021/08/23 10:33:39;;;;;;;9.05;2.53;;;20.00;99.90;;;;;;5015184;28;25105;-76
2021/08/23 10:36:07;;;;;;;7.07;3.78;;;19.90;99.90;;;;;;5014006;28;25071;-77
2021/08/23 10:38:40;;;;;;;7.07;2.42;;;19.90;99.90;;;;;;5016272;28;25103;-77
2021/08/23 10:41:16;;;;;;;6.90;2.67;;;20.00;99.90;;;;;;4997539;28;25071;-76
2021/08/23 10:43:57;;;;;;;9.70;2.65;;;20.00;99.90;;;;;;5013624;28;25134;-74
2021/08/23 10:46:35;;;;;;;6.65;2.40;;;20.00;99.90;;;;;;5016809;28;25100;-80
2021/08/23 10:49:20;;;;;;;8.27;2.97;;;19.90;99.90;;;;;;4998229;28;25068;-77
2021/08/23 10:51:56;;;;;;;10.05;3.10;;;19.90;99.90;;;;;;5004307;28;25113;-80
2021/08/23 10:54:33;;;;;;;5.03;2.47;;;19.90;99.90;;;;;;5014849;28;25067;-78
2021/08/23 10:56:59;;;;;;;7.97;3.13;;;19.90;99.90;;;;;;5014875;28;25087;-77
2021/08/23 10:59:24;;;;;;;8.85;2.25;;;20.30;99.90;;;;;;5013223;28;25107;-77
2021/08/23 11:01:57;;;;;;;6.97;2.53;;;20.40;99.90;;;;;;4995091;28;25130;-76
2021/08/23 11:04:34;;;;;;;10.25;3.13;;;20.70;99.90;;;;;;5006850;28;25087;-74
2021/08/23 11:07:02;;;;;;;10.43;2.67;;;20.20;99.90;;;;;;5012713;28;25049;-74
2021/08/23 11:09:35;;;;;;;6.45;2.28;;;20.10;99.90;;;;;;5011837;28;25057;-76
2021/08/23 11:12:12;;;;;;;4.47;2.05;;;20.10;99.90;;;;;;5014000;28;25086;-74
2021/08/23 11:14:49;;;;;;;7.75;2.60;;;20.10;99.90;;;;;;5012473;28;25046;-77
2021/08/23 11:17:26;;;;;;;5.70;2.78;;;20.30;99.90;;;;;;5012484;28;25100;-75
2021/08/23 11:19:52;;;;;;;9.18;3.10;;;20.50;99.90;;;;;;5012539;28;25065;-78
2021/08/23 11:22:18;;;;;;;9.02;2.70;;;20.60;99.90;;;;;;5011799;28;25118;-73
2021/08/23 11:24:44;;;;;;;5.28;2.22;;;20.70;99.90;;;;;;4995367;28;25075;-73
2021/08/23 11:27:14;;;;;;;7.32;2.83;;;20.90;99.90;;;;;;5014067;28;25144;-76
2021/08/23 11:29:47;;;;;;;11.63;2.55;;;21.00;99.90;;;;;;5008655;28;25077;-77
2021/08/23 11:32:13;;;;;;;11.88;2.78;;;21.30;99.90;;;;;;5013136;28;25103;-73
2021/08/23 11:34:39;;;;;;;5.13;2.45;;;21.30;99.90;;;;;;5012366;28;25131;-80
2021/08/23 11:37:07;;;;;;;6.30;2.80;;;21.30;99.90;;;;;;5013940;28;25101;-78
2021/08/23 11:39:34;;;;;;;17.02;3.20;;;21.10;99.90;;;;;;5012805;28;25076;-76
2021/08/23 11:42:04;;;;;;;5.50;2.40;;;21.30;99.90;;;;;;5014466;28;25055;-76
2021/08/23 11:44:30;;;;;;;5.68;2.65;;;21.20;99.90;;;;;;5017863;28;25083;-76
2021/08/23 11:47:04;;;;;;;8.20;2.00;;;21.00;99.90;;;;;;5013890;28;25068;-74
2021/08/23 11:49:34;;;;;;;5.78;2.63;;;20.80;99.90;;;;;;5013851;28;25104;-75
2021/08/23 11:52:12;;;;;;;6.78;2.47;;;21.20;99.90;;;;;;5017005;28;25085;-79
2021/08/23 11:54:40;;;;;;;5.43;2.22;;;21.30;99.90;;;;;;5023945;28;25089;-78
2021/08/23 11:57:06;;;;;;;4.18;2.05;;;21.20;99.90;;;;;;5020624;28;25064;-78
2021/08/23 11:59:32;;;;;;;4.30;2.38;;;21.20;99.90;;;;;;5026493;28;25093;-78
2021/08/23 12:02:11;;;;;;;4.95;2.00;;;21.30;99.90;;;;;;5015181;28;25070;-78
2021/08/23 12:04:37;;;;;;;5.97;2.70;;;21.60;99.90;;;;;;5034008;28;25051;-75
2021/08/23 12:07:03;;;;;;;5.13;2.70;;;21.80;99.90;;;;;;5034707;28;25070;-81
2021/08/23 12:09:29;;;;;;;5.28;2.58;;;21.90;99.90;;;;;;5034594;28;25061;-78
2021/08/23 12:11:55;;;;;;;4.95;2.28;;;21.70;99.90;;;;;;5031773;28;25066;-78
2021/08/23 12:14:24;;;;;;;4.07;2.00;;;21.70;99.90;;;;;;5034069;28;25073;-77
2021/08/23 12:16:51;;;;;;;3.67;2.10;;;21.80;99.90;;;;;;5016540;28;25109;-78
2021/08/23 12:19:17;;;;;;;5.03;2.63;;;21.80;99.90;;;;;;5033772;28;25078;-80
2021/08/23 12:21:48;;;;;;;6.05;2.42;;;21.70;99.90;;;;;;5033536;28;25083;-78
2021/08/23 12:24:13;;;;;;;8.25;2.83;;;21.90;99.90;;;;;;5032804;28;25052;-77
2021/08/23 12:26:57;;;;;;;4.15;2.53;;;21.70;99.90;;;;;;5032941;28;25085;-77
2021/08/23 12:29:36;;;;;;;5.32;2.40;;;21.70;99.90;;;;;;5033100;28;25071;-77
2021/08/23 12:32:07;;;;;;;4.97;2.45;;;21.80;99.90;;;;;;5030281;28;25094;-80
2021/08/23 12:34:37;;;;;;;3.33;1.98;;;21.50;99.90;;;;;;5033993;28;25063;-79
2021/08/23 12:37:04;;;;;;;6.88;2.50;;;21.70;99.90;;;;;;5033580;28;25073;-81
2021/08/23 12:39:30;;;;;;;8.85;2.15;;;21.70;99.90;;;;;;5032951;28;25077;-80